Time;durP1;ratioP1;P1;durP2;ratioP2;P2;SDS_P1;SDS_P2;PMS_P1;PMS_P2;Temp;Humidity;BMP_temperature;BMP_pressure;BME280_temperature;BME280_humidity;BME280_pressure;Samples;Min_cycle;Max_cycle;Signal;HPM_P1;HPM_P2
2023/10/09 00:01:26;;;;;;;9.68;5.22;;;16.20;99.90;;;;;;5035966;28;20053;-49
2023/10/09 00:03:53;;;;;;;8.40;5.63;;;16.20;99.90;;;;;;5035914;28;20129;-49
2023/10/09 00:06:31;;;;;;;11.30;6.47;;;16.10;99.90;;;;;;5036027;28;20052;-48
2023/10/09 00:08:58;;;;;;;10.00;5.03;;;16.10;99.90;;;;;;5036045;28;20084;-53
2023/10/09 00:11:29;;;;;;;9.38;5.30;;;16.10;99.90;;;;;;5036163;28;20045;-48
2023/10/09 00:14:00;;;;;;;12.93;5.80;;;16.10;99.90;;;;;;5035810;28;20120;-51
2023/10/09 00:16:40;;;;;;;9.23;5.82;;;16.20;99.90;;;;;;5035848;28;20033;-46
2023/10/09 00:19:43;;;;;;;9.93;5.82;;;16.20;99.90;;;;;;5035588;28;20099;-49
2023/10/09 00:22:16;;;;;;;9.07;5.35;;;16.20;99.90;;;;;;5034754;28;20096;-51
2023/10/09 00:24:46;;;;;;;7.85;5.40;;;16.30;99.90;;;;;;5035882;28;20117;-51
2023/10/09 00:27:18;;;;;;;8.88;5.40;;;16.30;99.90;;;;;;5034063;28;20107;-47
2023/10/09 00:29:45;;;;;;;12.40;6.53;;;16.30;99.90;;;;;;5035819;28;20675;-51
2023/10/09 00:32:26;;;;;;;9.15;6.10;;;16.30;99.90;;;;;;5034140;28;20073;-50
2023/10/09 00:34:58;;;;;;;10.38;6.00;;;16.40;99.90;;;;;;5033821;28;20096;-48
2023/10/09 00:37:33;;;;;;;9.32;5.47;;;16.40;99.90;;;;;;5034898;28;20045;-50
2023/10/09 00:40:12;;;;;;;9.45;5.72;;;16.30;99.90;;;;;;5035481;28;20099;-52
2023/10/09 00:42:39;;;;;;;12.80;6.28;;;16.30;99.90;;;;;;5035158;28;20041;-48
2023/10/09 00:45:10;;;;;;;11.15;5.85;;;16.30;99.90;;;;;;5034937;28;20047;-49
2023/10/09 00:47:40;;;;;;;9.25;5.68;;;16.30;99.90;;;;;;5035392;28;20045;-48
2023/10/09 00:50:20;;;;;;;7.47;5.32;;;16.30;99.90;;;;;;5034859;28;20081;-50
2023/10/09 00:52:51;;;;;;;10.98;5.80;;;16.30;99.90;;;;;;5034695;28;20054;-46
2023/10/09 00:55:21;;;;;;;7.28;5.35;;;16.30;99.90;;;;;;5033142;28;20041;-49
2023/10/09 00:57:50;;;;;;;9.88;5.32;;;16.20;99.90;;;;;;5034506;28;20038;-49
2023/10/09 01:05:52;;;;;;;10.05;5.50;;;16.20;99.90;;;;;;5034683;28;20053;-50
2023/10/09 01:08:28;;;;;;;11.13;5.90;;;16.20;99.90;;;;;;5034031;28;20042;-45
2023/10/09 01:11:08;;;;;;;9.35;5.63;;;16.10;99.90;;;;;;5034707;28;20049;-48
2023/10/09 01:16:17;;;;;;;11.88;5.63;;;16.10;99.90;;;;;;5034649;28;20387;-49
2023/10/09 01:18:44;;;;;;;8.73;5.15;;;16.10;99.90;;;;;;5032914;28;20052;-48
2023/10/09 01:21:14;;;;;;;9.70;5.47;;;16.10;99.90;;;;;;5033184;28;20516;-52
2023/10/09 01:24:02;;;;;;;6.97;4.90;;;16.00;99.90;;;;;;5034518;28;20037;-52
2023/10/09 01:26:33;;;;;;;7.82;5.18;;;16.00;99.90;;;;;;5033028;28;20132;-49
2023/10/09 01:29:00;;;;;;;6.38;4.95;;;16.00;99.90;;;;;;5034258;28;20468;-48
2023/10/09 01:31:27;;;;;;;9.07;5.40;;;16.00;99.90;;;;;;5033121;28;20534;-46
2023/10/09 01:33:59;;;;;;;7.80;4.72;;;16.00;99.90;;;;;;5034247;28;20141;-47
2023/10/09 01:36:32;;;;;;;8.93;5.22;;;15.90;99.90;;;;;;5034349;28;20034;-46
2023/10/09 01:38:59;;;;;;;10.40;5.50;;;15.90;99.90;;;;;;5034283;28;20457;-46
2023/10/09 01:41:26;;;;;;;7.68;4.88;;;15.90;99.90;;;;;;5033923;28;20051;-50
2023/10/09 01:44:00;;;;;;;11.15;5.22;;;15.80;99.90;;;;;;5034100;28;20042;-52
2023/10/09 01:46:28;;;;;;;9.00;5.15;;;15.80;99.90;;;;;;5033000;28;20049;-48
2023/10/09 01:48:55;;;;;;;7.38;4.90;;;15.80;99.90;;;;;;5033687;28;20060;-49
2023/10/09 01:51:22;;;;;;;10.82;5.43;;;15.70;99.90;;;;;;5033668;28;20087;-46
2023/10/09 01:53:54;;;;;;;6.93;5.00;;;15.70;99.90;;;;;;5031819;28;20053;-48
2023/10/09 01:56:21;;;;;;;8.00;5.00;;;15.70;99.90;;;;;;5032322;28;20044;-48
2023/10/09 01:58:50;;;;;;;8.05;5.15;;;15.70;99.90;;;;;;5033310;28;20037;-48
2023/10/09 02:01:17;;;;;;;9.43;5.32;;;15.70;99.90;;;;;;5032158;28;20125;-48
2023/10/09 02:03:45;;;;;;;8.18;4.78;;;15.70;99.90;;;;;;5032061;28;20120;-49
2023/10/09 02:06:29;;;;;;;7.55;4.20;;;15.70;99.90;;;;;;5033179;28;20171;-45
2023/10/09 02:08:56;;;;;;;6.88;4.43;;;15.70;99.90;;;;;;5033381;28;20041;-46
2023/10/09 02:14:19;;;;;;;9.52;4.68;;;15.70;99.90;;;;;;5029465;28;20081;-50
2023/10/09 02:17:02;;;;;;;8.73;4.80;;;15.60;99.90;;;;;;5033216;28;20115;-49
2023/10/09 02:19:31;;;;;;;7.35;4.55;;;15.60;99.90;;;;;;5033033;28;20404;-48
2023/10/09 02:21:58;;;;;;;8.88;4.95;;;15.60;99.90;;;;;;5032941;28;20469;-47
2023/10/09 02:27:11;;;;;;;9.93;4.90;;;15.50;99.90;;;;;;5032924;28;20120;-53
2023/10/09 02:29:38;;;;;;;7.07;4.80;;;15.50;99.90;;;;;;5032057;28;20133;-52
2023/10/09 02:32:14;;;;;;;7.13;4.90;;;15.40;99.90;;;;;;5033321;28;20477;-53
2023/10/09 02:34:41;;;;;;;6.47;4.57;;;15.40;99.90;;;;;;5033489;28;20052;-50
2023/10/09 02:37:12;;;;;;;8.18;4.72;;;15.30;99.90;;;;;;5033087;28;20045;-51
2023/10/09 02:39:48;;;;;;;8.48;4.72;;;15.30;99.90;;;;;;5031811;28;20140;-49
2023/10/09 02:44:50;;;;;;;7.15;4.95;;;15.20;99.90;;;;;;5033066;28;20547;-50
2023/10/09 02:47:20;;;;;;;7.28;5.32;;;15.20;99.90;;;;;;5032867;28;20056;-46
2023/10/09 02:49:50;;;;;;;8.82;4.80;;;15.20;99.90;;;;;;5033091;28;20095;-47
2023/10/09 02:52:19;;;;;;;7.65;4.70;;;15.20;99.90;;;;;;5032996;28;20092;-48
2023/10/09 02:54:47;;;;;;;6.85;5.00;;;15.20;99.90;;;;;;5031993;28;20114;-48
2023/10/09 02:57:23;;;;;;;8.23;4.80;;;15.10;99.90;;;;;;5033008;28;20080;-51
2023/10/09 02:59:54;;;;;;;8.35;4.90;;;15.10;99.90;;;;;;5033085;28;20048;-50
2023/10/09 03:02:24;;;;;;;9.02;5.40;;;15.10;99.90;;;;;;5031337;28;20045;-48
2023/10/09 03:04:55;;;;;;;7.65;4.75;;;15.10;99.90;;;;;;5032628;28;20080;-48
2023/10/09 03:07:23;;;;;;;6.70;4.82;;;15.00;99.90;;;;;;5031351;28;20041;-53
2023/10/09 03:09:50;;;;;;;7.45;5.10;;;15.00;99.90;;;;;;5032532;28;20048;-51
2023/10/09 03:12:18;;;;;;;7.75;5.00;;;15.00;99.90;;;;;;5031515;28;20050;-50
2023/10/09 03:14:45;;;;;;;8.15;4.95;;;15.00;99.90;;;;;;5033140;28;20049;-52
2023/10/09 03:17:12;;;;;;;7.60;4.80;;;15.00;99.90;;;;;;5032843;28;20038;-51
2023/10/09 03:19:39;;;;;;;7.78;4.53;;;15.00;99.90;;;;;;5031558;28;20432;-50
2023/10/09 03:22:09;;;;;;;11.27;5.05;;;15.00;99.90;;;;;;5031360;28;20049;-50
2023/10/09 03:24:37;;;;;;;6.47;4.57;;;15.00;99.90;;;;;;5032769;28;20046;-50
2023/10/09 03:27:04;;;;;;;9.57;5.43;;;15.00;99.90;;;;;;5032724;28;20091;-51
2023/10/09 03:29:31;;;;;;;7.80;5.43;;;14.90;99.90;;;;;;5032013;28;20069;-50
2023/10/09 03:32:00;;;;;;;7.88;5.13;;;14.90;99.90;;;;;;5034357;28;20041;-51
2023/10/09 03:34:27;;;;;;;10.45;5.20;;;14.90;99.90;;;;;;5036546;28;20045;-52
2023/10/09 03:37:22;;;;;;;8.13;5.05;;;14.90;99.90;;;;;;5036241;28;20041;-50
2023/10/09 03:39:47;;;;;;;8.55;5.45;;;14.80;99.90;;;;;;5034867;28;20041;-50
2023/10/09 03:42:19;;;;;;;8.57;5.15;;;14.80;99.90;;;;;;5036469;28;20037;-52
2023/10/09 03:44:52;;;;;;;9.70;5.18;;;14.80;99.90;;;;;;5036286;28;20053;-48
2023/10/09 03:47:22;;;;;;;6.63;4.68;;;14.70;99.90;;;;;;5036066;28;20073;-52
2023/10/09 03:49:51;;;;;;;10.07;4.88;;;14.70;99.90;;;;;;5035955;28;20045;-51
2023/10/09 03:52:19;;;;;;;10.43;5.38;;;14.70;99.90;;;;;;5036136;28;20061;-52
2023/10/09 03:54:49;;;;;;;6.93;5.20;;;14.70;99.90;;;;;;5035158;28;20100;-48
2023/10/09 03:57:19;;;;;;;7.75;4.85;;;14.70;99.90;;;;;;5035877;28;20057;-53
2023/10/09 03:59:46;;;;;;;7.03;4.93;;;14.60;99.90;;;;;;5035935;28;20048;-49
2023/10/09 04:02:13;;;;;;;8.52;5.10;;;14.60;99.90;;;;;;5036109;28;20447;-48
2023/10/09 04:04:45;;;;;;;8.45;4.90;;;14.70;99.90;;;;;;5034423;28;20092;-47
2023/10/09 04:07:12;;;;;;;8.25;5.68;;;14.70;99.90;;;;;;5035762;28;20101;-47
2023/10/09 04:09:44;;;;;;;7.93;5.65;;;14.70;99.90;;;;;;5036035;28;20465;-53
2023/10/09 04:14:47;;;;;;;8.07;5.00;;;14.70;99.90;;;;;;5035790;28;20053;-49
2023/10/09 04:17:39;;;;;;;10.75;5.88;;;14.70;99.90;;;;;;5034234;28;20067;-50
2023/10/09 04:20:47;;;;;;;8.07;5.03;;;14.70;99.90;;;;;;5035782;28;20388;-50
2023/10/09 04:22:59;;;;;;;9.70;5.57;;;14.70;99.90;;;;;;5034934;28;20057;-51
2023/10/09 04:25:28;;;;;;;8.30;5.40;;;14.80;99.90;;;;;;5035507;28;20144;-51
2023/10/09 04:30:42;;;;;;;9.98;5.38;;;14.70;99.90;;;;;;5035109;28;20121;-48
2023/10/09 04:38:55;;;;;;;;;;;14.60;99.90;;;;;;5035377;28;20071;-49
2023/10/09 04:41:27;;;;;;;10.63;5.10;;;14.60;99.90;;;;;;5035576;28;20352;-46
2023/10/09 04:44:18;;;;;;;8.13;5.13;;;14.50;99.90;;;;;;5034307;28;20045;-46
2023/10/09 04:46:44;;;;;;;7.97;5.10;;;14.50;99.90;;;;;;5034644;28;20072;-45
2023/10/09 04:49:29;;;;;;;9.30;5.53;;;14.50;99.90;;;;;;5035232;28;20129;-46
2023/10/09 04:52:08;;;;;;;8.27;5.25;;;14.50;99.90;;;;;;5034946;28;20041;-49
2023/10/09 04:55:03;;;;;;;8.38;4.82;;;14.50;99.90;;;;;;5034777;28;20096;-51
2023/10/09 04:57:27;;;;;;;8.10;4.95;;;14.50;99.90;;;;;;5034668;28;20057;-47
2023/10/09 04:59:58;;;;;;;9.20;4.97;;;14.50;99.90;;;;;;5033118;28;20128;-49
2023/10/09 05:02:36;;;;;;;7.75;5.07;;;14.50;99.90;;;;;;5034819;28;20033;-51
2023/10/09 05:07:56;;;;;;;7.85;4.53;;;14.50;99.90;;;;;;5025371;28;20381;-54
2023/10/09 05:10:26;;;;;;;9.55;4.65;;;14.50;99.90;;;;;;5034547;28;20041;-49
2023/10/09 05:12:59;;;;;;;7.85;4.97;;;14.60;99.90;;;;;;5034844;28;20064;-52
2023/10/09 05:15:27;;;;;;;7.80;4.63;;;14.60;99.90;;;;;;5035085;28;20501;-49
2023/10/09 05:17:56;;;;;;;7.68;4.72;;;14.60;99.90;;;;;;5034421;28;20037;-50
2023/10/09 05:23:07;;;;;;;8.35;5.13;;;14.60;99.90;;;;;;5034644;28;20033;-51
2023/10/09 05:26:37;;;;;;;8.15;5.13;;;14.50;99.90;;;;;;5034749;28;20149;-50
2023/10/09 05:31:44;;;;;;;8.95;5.03;;;14.50;99.90;;;;;;5034503;28;20124;-51
2023/10/09 05:34:01;;;;;;;8.52;4.75;;;14.50;99.90;;;;;;5034578;28;20087;-49
2023/10/09 05:41:53;;;;;;;9.18;4.97;;;14.40;99.90;;;;;;5034523;28;20049;-52
2023/10/09 05:55:48;;;;;;;7.93;5.35;;;14.20;99.90;;;;;;5032987;28;20180;-47
2023/10/09 06:08:47;;;;;;;10.40;5.65;;;14.10;99.90;;;;;;5033815;28;20041;-46
2023/10/09 06:24:19;;;;;;;12.00;6.03;;;14.00;99.90;;;;;;5033797;28;20095;-47
2023/10/09 06:27:24;;;;;;;9.75;6.55;;;14.00;99.90;;;;;;5033147;28;20037;-47
2023/10/09 06:34:46;;;;;;;10.82;5.60;;;13.80;99.90;;;;;;5033751;28;20037;-47
2023/10/09 06:45:00;;;;;;;8.73;5.20;;;13.90;99.90;;;;;;5033049;28;20052;-48
2023/10/09 06:47:27;;;;;;;8.93;5.45;;;13.90;99.90;;;;;;5032790;28;20045;-50
2023/10/09 06:50:24;;;;;;;9.68;5.80;;;14.00;99.90;;;;;;5033445;28;20049;-49
2023/10/09 06:52:57;;;;;;;11.60;5.88;;;14.10;99.90;;;;;;5033058;28;20140;-50
2023/10/09 06:55:33;;;;;;;8.40;5.22;;;14.10;99.90;;;;;;5032690;28;20053;-46
2023/10/09 06:58:09;;;;;;;8.88;5.55;;;14.10;99.90;;;;;;5032672;28;20083;-48
2023/10/09 07:01:00;;;;;;;11.02;5.57;;;14.20;99.90;;;;;;5033170;28;20043;-45
2023/10/09 07:03:32;;;;;;;11.63;5.97;;;14.20;99.90;;;;;;5032285;28;20072;-45
2023/10/09 07:06:04;;;;;;;12.68;5.90;;;14.30;99.90;;;;;;5032987;28;20103;-48
2023/10/09 07:08:37;;;;;;;11.93;5.85;;;14.40;99.90;;;;;;5036697;28;20049;-47
2023/10/09 07:11:56;;;;;;;14.32;5.53;;;14.40;99.90;;;;;;5036755;28;20103;-49
2023/10/09 07:16:57;;;;;;;12.73;5.20;;;14.60;99.90;;;;;;5034917;28;20335;-50
2023/10/09 07:22:23;;;;;;;9.75;5.03;;;14.90;99.90;;;;;;5035112;28;20124;-51
2023/10/09 07:24:56;;;;;;;9.93;5.32;;;15.00;99.90;;;;;;5034788;28;20401;-48
2023/10/09 07:32:55;;;;;;;8.10;5.25;;;15.40;99.90;;;;;;5036532;28;19927;-49
2023/10/09 07:38:08;;;;;;;8.55;5.25;;;15.60;99.90;;;;;;5036906;28;20499;-48
2023/10/09 07:40:54;;;;;;;12.18;4.93;;;15.80;99.90;;;;;;5036759;28;20038;-49
2023/10/09 07:43:26;;;;;;;7.80;4.72;;;16.00;99.90;;;;;;5035357;28;20041;-52
2023/10/09 07:48:25;;;;;;;11.48;5.32;;;16.20;99.90;;;;;;5036013;28;20041;-51
2023/10/09 07:50:57;;;;;;;9.68;5.07;;;16.20;99.90;;;;;;5036122;28;20121;-50
2023/10/09 07:53:28;;;;;;;10.25;5.35;;;16.30;99.90;;;;;;5035668;28;20057;-52
2023/10/09 07:55:58;;;;;;;11.00;4.75;;;16.40;99.90;;;;;;5036234;28;20041;-48
2023/10/09 07:58:25;;;;;;;11.52;4.82;;;16.50;99.90;;;;;;5035872;28;20041;-49
2023/10/09 08:03:37;;;;;;;11.52;5.38;;;16.50;99.90;;;;;;5036376;28;20052;-49
2023/10/09 08:06:37;;;;;;;8.57;4.85;;;16.60;99.90;;;;;;5036052;28;20124;-48
2023/10/09 08:19:58;;;;;;;10.32;5.20;;;16.70;99.90;;;;;;5034956;28;20054;-52
2023/10/09 08:24:58;;;;;;;8.75;5.05;;;16.80;99.90;;;;;;5035630;28;20038;-50
2023/10/09 08:32:48;;;;;;;13.88;6.07;;;16.80;99.90;;;;;;5035361;28;20152;-47
2023/10/09 08:35:31;;;;;;;11.10;5.60;;;16.80;99.90;;;;;;5035328;28;20037;-47
2023/10/09 08:38:10;;;;;;;10.50;5.40;;;16.90;99.90;;;;;;5035564;28;20085;-49
2023/10/09 08:40:38;;;;;;;12.13;5.75;;;16.90;99.90;;;;;;5034477;28;20385;-51
2023/10/09 08:43:08;;;;;;;12.15;5.57;;;16.90;99.90;;;;;;5035099;28;20121;-54
2023/10/09 08:45:35;;;;;;;10.05;5.50;;;16.90;99.90;;;;;;5035152;28;20041;-52
2023/10/09 08:48:04;;;;;;;11.25;5.40;;;17.00;99.90;;;;;;5034909;28;20496;-50
2023/10/09 08:50:31;;;;;;;10.23;6.00;;;17.10;99.90;;;;;;5035406;28;20057;-49
2023/10/09 08:52:58;;;;;;;8.90;5.60;;;17.10;99.90;;;;;;5035111;28;20052;-50
2023/10/09 08:55:25;;;;;;;10.65;5.30;;;17.20;99.90;;;;;;5034881;28;20133;-55
2023/10/09 08:57:52;;;;;;;10.05;5.75;;;17.20;99.90;;;;;;5034847;28;20047;-47
2023/10/09 09:00:23;;;;;;;11.65;5.20;;;17.30;99.90;;;;;;5035277;28;20155;-53
2023/10/09 09:02:52;;;;;;;9.00;5.35;;;17.40;99.90;;;;;;5034741;28;20120;-49
2023/10/09 09:05:20;;;;;;;10.30;5.53;;;17.40;99.90;;;;;;5035260;28;20042;-48
2023/10/09 09:07:49;;;;;;;9.52;5.45;;;17.40;99.90;;;;;;5034998;28;20046;-50
2023/10/09 09:10:21;;;;;;;10.85;5.65;;;17.40;99.90;;;;;;5034673;28;20049;-49
2023/10/09 09:13:00;;;;;;;10.02;5.78;;;17.40;99.90;;;;;;5034781;28;20056;-49
2023/10/09 09:15:27;;;;;;;11.50;6.40;;;17.50;99.90;;;;;;5034618;28;20045;-51
2023/10/09 09:17:54;;;;;;;11.02;6.20;;;17.50;99.90;;;;;;5034495;28;20061;-51
2023/10/09 09:20:30;;;;;;;10.30;5.10;;;17.50;99.90;;;;;;5034591;28;20033;-49
2023/10/09 09:22:57;;;;;;;8.82;5.30;;;17.60;99.90;;;;;;5034650;28;20041;-55
2023/10/09 09:25:25;;;;;;;12.57;5.55;;;17.60;99.90;;;;;;5034705;28;20041;-50
2023/10/09 09:27:52;;;;;;;12.43;5.55;;;17.60;99.90;;;;;;5034205;28;20060;-49
2023/10/09 09:30:23;;;;;;;10.75;5.50;;;17.60;99.90;;;;;;5033851;28;20464;-50
2023/10/09 09:33:15;;;;;;;7.85;5.35;;;17.70;99.90;;;;;;5034429;28;20116;-45
2023/10/09 09:35:37;;;;;;;13.13;5.32;;;17.70;99.90;;;;;;5034466;28;20057;-50
2023/10/09 09:38:05;;;;;;;10.35;5.03;;;17.80;99.90;;;;;;5034021;28;20519;-49
2023/10/09 09:40:33;;;;;;;8.88;5.70;;;17.80;99.90;;;;;;5034162;28;20076;-54
2023/10/09 09:43:05;;;;;;;12.73;5.75;;;17.90;99.90;;;;;;5034085;28;20033;-46
2023/10/09 09:45:32;;;;;;;9.60;5.32;;;18.00;99.90;;;;;;5033933;28;20049;-45
2023/10/09 09:48:01;;;;;;;9.25;4.65;;;18.00;99.90;;;;;;5033856;28;20063;-46
2023/10/09 09:50:29;;;;;;;9.07;4.78;;;18.10;99.90;;;;;;5032541;28;20099;-46
2023/10/09 09:52:56;;;;;;;10.50;5.28;;;18.10;99.90;;;;;;5033639;28;20046;-45
2023/10/09 09:55:30;;;;;;;8.30;5.25;;;18.10;99.90;;;;;;5033779;28;20048;-48
2023/10/09 09:57:58;;;;;;;9.65;4.90;;;18.10;99.90;;;;;;5033843;28;20053;-46
2023/10/09 10:00:43;;;;;;;10.32;5.05;;;18.20;99.90;;;;;;5033913;28;20068;-46
2023/10/09 10:03:10;;;;;;;9.95;4.82;;;18.20;99.90;;;;;;5033825;28;20473;-48
2023/10/09 10:05:37;;;;;;;10.85;5.25;;;18.30;99.90;;;;;;5033955;28;20484;-49
2023/10/09 10:08:05;;;;;;;12.02;4.35;;;18.40;99.90;;;;;;5033699;28;20081;-50
2023/10/09 10:10:32;;;;;;;7.40;4.45;;;18.40;99.90;;;;;;5032752;28;20042;-53
2023/10/09 10:13:03;;;;;;;8.57;4.80;;;18.40;99.90;;;;;;5033706;28;20042;-51
2023/10/09 10:15:30;;;;;;;11.55;4.90;;;18.40;99.90;;;;;;5033698;28;20095;-49
2023/10/09 10:17:59;;;;;;;11.00;4.72;;;18.40;99.90;;;;;;5033616;28;20087;-48
2023/10/09 10:20:26;;;;;;;10.32;5.65;;;18.50;99.90;;;;;;5033214;28;20041;-47
2023/10/09 10:22:54;;;;;;;11.25;4.93;;;18.50;99.90;;;;;;5033346;28;20553;-51
2023/10/09 10:25:21;;;;;;;7.72;4.70;;;18.60;99.90;;;;;;5033385;28;20050;-50
2023/10/09 10:28:09;;;;;;;9.27;4.43;;;18.70;99.90;;;;;;5033318;28;20088;-50
2023/10/09 10:30:36;;;;;;;10.80;4.88;;;18.70;99.90;;;;;;5033657;28;20483;-50
2023/10/09 10:33:09;;;;;;;9.25;4.70;;;18.80;99.90;;;;;;5033582;28;20043;-45
2023/10/09 10:35:44;;;;;;;12.18;4.70;;;18.90;99.90;;;;;;5033321;28;20041;-48
2023/10/09 10:38:15;;;;;;;12.00;4.60;;;19.00;99.90;;;;;;5033225;28;20520;-52
2023/10/09 10:40:45;;;;;;;11.73;5.05;;;19.10;99.90;;;;;;5032969;28;20141;-51
2023/10/09 10:43:13;;;;;;;9.23;4.10;;;19.20;99.90;;;;;;5033740;28;20077;-50
2023/10/09 10:45:44;;;;;;;9.07;4.38;;;19.30;99.90;;;;;;5033147;28;20041;-50
2023/10/09 10:48:37;;;;;;;12.68;4.65;;;19.40;99.90;;;;;;5032991;28;20052;-50
2023/10/09 10:51:03;;;;;;;6.95;4.47;;;19.50;99.90;;;;;;5033078;28;20073;-50
2023/10/09 10:53:47;;;;;;;12.60;4.57;;;19.70;99.90;;;;;;5032836;28;20404;-51
2023/10/09 11:01:26;;;;;;;7.25;4.45;;;19.90;99.90;;;;;;5033085;28;20088;-49
2023/10/09 11:03:56;;;;;;;9.32;4.28;;;19.90;99.90;;;;;;5032786;28;20116;-49
2023/10/09 11:06:23;;;;;;;8.27;4.63;;;19.90;99.90;;;;;;5033158;28;20128;-53
2023/10/09 11:09:08;;;;;;;12.73;4.50;;;19.90;99.90;;;;;;5032488;28;20040;-50
2023/10/09 11:11:46;;;;;;;7.97;4.72;;;20.00;99.90;;;;;;5033223;28;20394;-48
2023/10/09 11:14:23;;;;;;;8.70;4.45;;;20.00;99.90;;;;;;5033240;28;20377;-51
2023/10/09 11:16:51;;;;;;;10.65;4.63;;;20.00;99.90;;;;;;5032748;28;20050;-51
2023/10/09 11:24:30;;;;;;;8.20;3.92;;;20.10;99.90;;;;;;5033017;28;20036;-48
2023/10/09 11:27:04;;;;;;;8.60;4.55;;;20.10;99.90;;;;;;5032545;28;20037;-50
2023/10/09 11:32:17;;;;;;;8.40;4.47;;;20.20;99.90;;;;;;5032966;28;20069;-53
2023/10/09 11:34:51;;;;;;;11.82;4.55;;;20.20;99.90;;;;;;5033174;28;20077;-50
2023/10/09 11:37:38;;;;;;;9.25;4.47;;;20.20;99.90;;;;;;5032828;28;20477;-52
2023/10/09 11:40:21;;;;;;;6.47;4.05;;;20.20;99.90;;;;;;5031989;28;20045;-55
2023/10/09 11:42:49;;;;;;;9.90;4.70;;;20.40;99.90;;;;;;5032829;28;20034;-47
2023/10/09 11:45:28;;;;;;;11.48;4.47;;;20.40;99.90;;;;;;5032642;28;20041;-48
2023/10/09 11:48:01;;;;;;;8.52;4.75;;;20.50;99.90;;;;;;5032714;28;20041;-44
2023/10/09 11:50:30;;;;;;;8.90;4.47;;;20.50;99.90;;;;;;5032188;28;20044;-50
2023/10/09 11:53:17;;;;;;;6.97;4.55;;;20.50;99.90;;;;;;5034315;28;20088;-50
2023/10/09 11:55:48;;;;;;;8.13;4.75;;;20.60;99.90;;;;;;5036542;28;20045;-49
2023/10/09 11:58:22;;;;;;;9.93;4.45;;;20.60;99.90;;;;;;5035718;28;20048;-48
2023/10/09 12:00:49;;;;;;;8.43;4.53;;;20.70;99.90;;;;;;5036042;28;20124;-50
2023/10/09 12:03:16;;;;;;;8.98;4.57;;;20.70;99.90;;;;;;5036280;28;20038;-53
2023/10/09 12:05:44;;;;;;;10.20;4.55;;;20.70;99.90;;;;;;5034646;28;20037;-50
2023/10/09 12:08:11;;;;;;;11.27;4.88;;;20.70;99.90;;;;;;5035866;28;20461;-47
2023/10/09 12:10:38;;;;;;;8.18;4.25;;;20.90;99.90;;;;;;5035939;28;20116;-49
2023/10/09 12:13:05;;;;;;;11.93;4.63;;;21.00;99.90;;;;;;5036059;28;20544;-49
2023/10/09 12:15:38;;;;;;;10.43;4.90;;;21.10;99.90;;;;;;5035847;28;20037;-50
2023/10/09 12:18:06;;;;;;;8.52;5.07;;;21.20;99.90;;;;;;5035449;28;20133;-48
2023/10/09 12:20:35;;;;;;;7.50;4.28;;;21.20;99.90;;;;;;5036231;28;20346;-48
2023/10/09 12:23:05;;;;;;;6.15;4.15;;;21.30;99.90;;;;;;5035459;28;20404;-48
2023/10/09 12:25:32;;;;;;;10.65;4.03;;;21.30;99.90;;;;;;5035726;28;20087;-50
2023/10/09 12:28:01;;;;;;;12.25;4.97;;;21.30;99.90;;;;;;5035776;28;20052;-51
2023/10/09 12:30:28;;;;;;;9.43;4.88;;;21.30;99.90;;;;;;5035725;28;20045;-48
2023/10/09 12:32:57;;;;;;;11.02;4.80;;;21.20;99.90;;;;;;5035603;28;20041;-49
2023/10/09 12:35:24;;;;;;;12.70;4.97;;;21.20;99.90;;;;;;5035221;28;20043;-50
2023/10/09 12:37:51;;;;;;;7.63;4.05;;;21.30;99.90;;;;;;5035183;28;20050;-51
2023/10/09 12:40:24;;;;;;;13.27;5.05;;;21.30;99.90;;;;;;5033914;28;20045;-48
2023/10/09 12:42:50;;;;;;;14.88;5.28;;;21.50;99.90;;;;;;5035344;28;20480;-49
2023/10/09 12:45:18;;;;;;;9.15;4.50;;;21.50;99.90;;;;;;5035251;28;20469;-49
2023/10/09 12:47:47;;;;;;;13.80;4.40;;;21.60;99.90;;;;;;5035205;28;20108;-45
2023/10/09 12:50:14;;;;;;;14.90;4.10;;;21.60;99.90;;;;;;5035513;28;20046;-48
2023/10/09 12:52:42;;;;;;;12.00;4.72;;;21.70;99.90;;;;;;5033670;28;20050;-46
2023/10/09 12:55:18;;;;;;;9.88;4.55;;;21.80;99.90;;;;;;5035675;28;20045;-50
2023/10/09 12:57:44;;;;;;;11.77;5.13;;;21.80;99.90;;;;;;5035150;28;20041;-50
2023/10/09 13:00:12;;;;;;;8.60;4.55;;;21.90;99.90;;;;;;5034875;28;20041;-47
2023/10/09 13:02:43;;;;;;;11.43;4.60;;;22.10;99.90;;;;;;5034908;28;20037;-46
2023/10/09 13:05:24;;;;;;;8.25;4.57;;;22.20;99.90;;;;;;5034610;28;20037;-52
2023/10/09 13:07:51;;;;;;;10.82;4.97;;;22.30;99.90;;;;;;5034964;28;20065;-50
2023/10/09 13:10:18;;;;;;;11.13;4.78;;;22.40;99.90;;;;;;5034534;28;20103;-48
2023/10/09 13:12:45;;;;;;;10.70;4.60;;;22.40;99.90;;;;;;5034885;28;20045;-49
2023/10/09 13:15:12;;;;;;;11.70;4.80;;;22.40;99.90;;;;;;5034833;28;20041;-48
2023/10/09 13:17:39;;;;;;;12.93;4.55;;;22.40;99.90;;;;;;5034535;28;20055;-49
2023/10/09 13:20:26;;;;;;;11.40;4.70;;;22.40;99.90;;;;;;5035076;28;20373;-53
2023/10/09 13:22:53;;;;;;;12.68;4.55;;;22.50;99.90;;;;;;5033415;28;20046;-48
2023/10/09 13:25:24;;;;;;;10.57;4.38;;;22.60;99.90;;;;;;5034510;28;20060;-48
2023/10/09 13:28:03;;;;;;;12.95;6.70;;;22.60;99.90;;;;;;5034820;28;20064;-46
2023/10/09 13:30:38;;;;;;;12.77;6.15;;;22.60;99.90;;;;;;5034226;28;20052;-46
2023/10/09 13:33:06;;;;;;;9.10;5.38;;;22.60;99.90;;;;;;5034898;28;20061;-48
2023/10/09 13:35:37;;;;;;;10.32;4.57;;;22.70;99.90;;;;;;5034173;28;20048;-46
2023/10/09 13:38:09;;;;;;;13.90;4.63;;;22.60;99.90;;;;;;5034445;28;20067;-49
2023/10/09 13:40:37;;;;;;;10.40;4.35;;;22.60;99.90;;;;;;5034221;28;20041;-49
2023/10/09 13:43:05;;;;;;;7.80;4.40;;;22.60;99.90;;;;;;5034466;28;20045;-53
2023/10/09 13:45:33;;;;;;;11.57;4.93;;;22.70;99.90;;;;;;5033815;28;20105;-45
2023/10/09 13:48:02;;;;;;;16.38;4.85;;;22.70;99.90;;;;;;5031966;28;20096;-50
2023/10/09 13:50:32;;;;;;;15.02;4.40;;;22.70;99.90;;;;;;5033038;28;20073;-49
2023/10/09 13:53:00;;;;;;;9.25;4.68;;;22.70;99.60;;;;;;5033182;28;20044;-52
2023/10/09 13:55:32;;;;;;;12.27;4.55;;;22.80;99.30;;;;;;5025104;28;20125;-49
2023/10/09 13:57:59;;;;;;;8.98;4.00;;;22.90;99.60;;;;;;5033684;28;20037;-47
2023/10/09 14:00:42;;;;;;;10.90;5.10;;;23.00;99.40;;;;;;5032420;28;20370;-50
2023/10/09 14:03:13;;;;;;;11.30;5.00;;;23.00;99.50;;;;;;5033705;28;20103;-49
2023/10/09 14:05:54;;;;;;;11.93;4.70;;;23.00;99.60;;;;;;5018486;28;20126;-50
2023/10/09 14:08:26;;;;;;;10.30;4.47;;;22.90;99.70;;;;;;5032296;28;20045;-48
2023/10/09 14:10:54;;;;;;;12.05;5.25;;;22.90;99.60;;;;;;5030970;28;20413;-46
2023/10/09 14:13:28;;;;;;;12.93;5.60;;;22.90;99.70;;;;;;5026194;28;20049;-49
2023/10/09 14:15:56;;;;;;;22.77;13.50;;;22.90;99.80;;;;;;5026663;28;20095;-53
2023/10/09 14:18:24;;;;;;;16.02;6.32;;;22.90;99.80;;;;;;5031239;28;20053;-49
2023/10/09 14:20:56;;;;;;;10.07;4.82;;;22.90;99.80;;;;;;5032859;28;20484;-54
2023/10/09 14:23:24;;;;;;;12.55;4.28;;;22.90;99.80;;;;;;5033031;28;20052;-49
2023/10/09 14:25:56;;;;;;;9.95;4.60;;;22.90;99.90;;;;;;5032714;28;20045;-53
2023/10/09 14:28:28;;;;;;;9.70;4.57;;;22.90;99.90;;;;;;5032496;28;20037;-47
2023/10/09 14:30:59;;;;;;;13.57;5.28;;;22.90;99.90;;;;;;5032716;28;20045;-50
2023/10/09 14:33:27;;;;;;;10.75;4.57;;;22.90;99.90;;;;;;5032676;28;20552;-48
2023/10/09 14:35:54;;;;;;;13.15;4.90;;;22.90;99.90;;;;;;5032681;28;20069;-47
2023/10/09 14:38:27;;;;;;;11.88;5.38;;;22.90;99.90;;;;;;5032356;28;20049;-49
2023/10/09 14:41:00;;;;;;;14.38;4.65;;;22.90;99.90;;;;;;5032421;28;20041;-44
2023/10/09 14:43:33;;;;;;;10.35;4.25;;;22.90;99.90;;;;;;5032494;28;20103;-44
2023/10/09 14:46:00;;;;;;;10.43;4.82;;;22.90;99.90;;;;;;5032636;28;20073;-48
2023/10/09 14:48:28;;;;;;;12.27;4.70;;;22.90;99.90;;;;;;5031641;28;20045;-45
2023/10/09 14:51:04;;;;;;;11.70;4.53;;;22.90;99.90;;;;;;5032402;28;20096;-50
2023/10/09 14:53:34;;;;;;;15.70;4.38;;;23.00;99.90;;;;;;5025705;28;20358;-47
2023/10/09 14:56:08;;;;;;;10.02;4.63;;;23.00;99.90;;;;;;5026223;28;20099;-50
2023/10/09 14:58:36;;;;;;;13.07;4.30;;;23.00;99.90;;;;;;5032721;28;20056;-49
2023/10/09 15:01:06;;;;;;;14.10;4.97;;;23.00;99.90;;;;;;5032658;28;20050;-51
2023/10/09 15:03:37;;;;;;;12.43;5.45;;;23.10;99.90;;;;;;5032763;28;20056;-52
2023/10/09 15:06:08;;;;;;;16.58;5.05;;;23.10;99.90;;;;;;5032575;28;20043;-47
2023/10/09 15:08:35;;;;;;;12.52;4.70;;;23.20;99.90;;;;;;5032781;28;20080;-52
2023/10/09 15:11:01;;;;;;;15.90;5.28;;;23.20;99.90;;;;;;5032700;28;20155;-52
2023/10/09 15:13:28;;;;;;;12.60;5.32;;;23.10;99.90;;;;;;5032615;28;20446;-50
2023/10/09 15:15:55;;;;;;;11.73;4.80;;;23.10;99.90;;;;;;5032194;28;20045;-49
2023/10/09 15:18:22;;;;;;;12.20;5.30;;;23.10;99.90;;;;;;5032201;28;20077;-53
2023/10/09 15:20:49;;;;;;;14.35;4.90;;;23.10;99.90;;;;;;5032232;28;20045;-49
2023/10/09 15:23:15;;;;;;;13.57;5.35;;;23.10;99.90;;;;;;5032522;28;20084;-53
2023/10/09 15:25:45;;;;;;;10.63;4.80;;;23.10;99.90;;;;;;5032414;28;20096;-50